Πλησιέστερες Αναφορές METAR

 

LGTS - Thessaloniki/Makedonia-Elev 7m
Distance from station: Ν 13km
Ενημερώθηκε: 20/02/2020 20:50
Μερικώς νεφελώδης
Μερικώς νεφελώδης
 Ανεμος από Β
Ανεμος: Β 30 km/h
Θερμοκρασία: 9°C
Wind Chill: 5°C
Σημείο Δρόσου: 1°C
Υγρασία: 58%
Βαρόμετρο: 1016 hPa
Clouds: Μερικώς νεφελώδης
Visibility: 10 km
Cloud details: Few Clouds 244 m
Μερικώς νεφελώδης 914 m
2020/02/20 18:50 LGTS 201850Z 36016KT 9999 FEW008 SCT030 09/01 Q1016 NOSIG
LGAV - Athens/Elef. Venizelos-Elev 94m
Distance from station: ΝΝΑ 312km
Ενημερώθηκε: 20/02/2020 20:50
Light drizzle, Σχεδόν νεφελώδης
Light drizzle, Σχεδόν νεφελώδης
 Ανεμος από ΒΒΔ
Ανεμος: ΒΒΔ 20 km/h
Θερμοκρασία: 11°C
Σημείο Δρόσου: 6°C
Υγρασία: 72%
Βαρόμετρο: 1012 hPa
Συνθήκες: Light Drizzle
Clouds: Σχεδόν νεφελώδης
Visibility: 10 km
Cloud details: Few Clouds 610 m
Μερικώς νεφελώδης 914 m
Σχεδόν νεφελώδης 2134 m
2020/02/20 18:50 LGAV 201850Z 33011KT 9999 -DZ FEW020 SCT030 BKN070 11/06 Q1012 NOSIG
 
LGAL - Alexandroupolis-Elev 3m
Distance from station: Α 251km
Ενημερώθηκε: 20/02/2020 20:50
Μερικώς νεφελώδης
Μερικώς νεφελώδης
 Ανεμος από ΒΒΑ
Ανεμος: ΒΒΑ 28 km/h
Θερμοκρασία: 7°C
Wind Chill: 3°C
Σημείο Δρόσου: 4°C
Υγρασία: 81%
Βαρόμετρο: 1015 hPa
Clouds: Μερικώς νεφελώδης
Visibility: 10 km
Cloud details: Μερικώς νεφελώδης 762 m
2020/02/20 18:50 LGAL 201850Z 02015KT 9999 SCT025 07/04 Q1015
LGKV - Kavala/Crysoupolis-Elev 5m
Distance from station: ΑΒΑ 144km
Ενημερώθηκε: 20/02/2020 20:50
Μερικώς νεφελώδης
Μερικώς νεφελώδης
 Ανεμος από Α
Ανεμος: Α 11 km/h
Θερμοκρασία: 9°C
Wind Chill: 7°C
Σημείο Δρόσου: 3°C
Υγρασία: 66%
Βαρόμετρο: 1015 hPa
Clouds: Μερικώς νεφελώδης
Visibility: 10 km
Cloud details: Few Clouds 762 m
Μερικώς νεφελώδης 2438 m
2020/02/20 18:50 LGKV 201850Z 09006KT 9999 FEW025 SCT080 09/03 Q1015
 
LGSK - Skiathos Island-Elev 15m
Distance from station: ΝΝΑ 168km
Ενημερώθηκε: 20/02/2020 14:20
Μη Ενημερωμένο!
Μερικώς νεφελώδης
Μερικώς νεφελώδης
 Ανεμος από ΒΑ
Ανεμος: ΒΑ 13 km/h
Θερμοκρασία: 13°C
Σημείο Δρόσου: 9°C
Υγρασία: 77%
Βαρόμετρο: 1010 hPa
Clouds: Μερικώς νεφελώδης
Visibility: 8 km
Cloud details: Μερικώς νεφελώδης 610 m
2020/02/20 12:20 LGSK 201220Z 05007KT 8000 SCT020 13/09 Q1010
LGLM - Limnos Island-Elev 5m
Distance from station: ΑΝΑ 210km
Ενημερώθηκε: 20/02/2020 20:50
Μερικώς νεφελώδης
Μερικώς νεφελώδης
 Ανεμος από ΒΑ
Ανεμος: ΒΑ 31 km/h, Ριπή: 56 km/h
Θερμοκρασία: 10°C
Wind Chill: 7°C
Σημείο Δρόσου: 4°C
Υγρασία: 67%
Βαρόμετρο: 1013 hPa
Clouds: Μερικώς νεφελώδης
Visibility: 10 km
Cloud details: Μερικώς νεφελώδης 610 m
2020/02/20 18:50 LGLM 201850Z 05017G30KT 9999 SCT020 10/04 Q1013
 
LGMT - Mitilini Island-Elev 17m
Distance from station: ΑΝΑ 358km
Ενημερώθηκε: 20/02/2020 20:50
Μερικώς νεφελώδης
Μερικώς νεφελώδης
 Ανεμος από ΒΒΑ
Ανεμος: ΒΒΑ 15 km/h
Θερμοκρασία: 11°C
Σημείο Δρόσου: 9°C
Υγρασία: 88%
Βαρόμετρο: 1011 hPa
Clouds: Μερικώς νεφελώδης
Visibility: 10 km
Cloud details: Μερικώς νεφελώδης 762 m
2020/02/20 18:50 LGMT 201850Z 02008KT 9999 SCT025 11/09 Q1011
LGSY - Skiros Island-Elev 15m
Distance from station: ΝΑ 227km
Ενημερώθηκε: 20/02/2020 19:50
Ασθενής βροχή, Σχεδόν νεφελώδης
Ασθενής βροχή, Σχεδόν νεφελώδης
 Ανεμος από ΒΑ
Ανεμος: ΒΑ 28 km/h
Θερμοκρασία: 10°C
Wind Chill: 7°C
Σημείο Δρόσου: 9°C
Υγρασία: 94%
Βαρόμετρο: 1012 hPa
Συνθήκες: Ασθενής βροχή
Clouds: Σχεδόν νεφελώδης
Visibility: 7 km
Cloud details: Few Clouds 549 m
Σχεδόν νεφελώδης 762 m
2020/02/20 17:50 LGSY 201750Z 05015KT 7000 -RA FEW018TCU BKN025 10/09 Q1012 RMK OVC080 WHT
 
LGKZ - Kozani-Elev 628m
Distance from station: ΔΝΔ 102km
Ενημερώθηκε: 20/02/2020 20:50

 Ανεμος από Β
Ανεμος: Β 24 km/h, Ριπή: 43 km/h
Θερμοκρασία: 3°C
Wind Chill: -2°C
Σημείο Δρόσου: -4°C
Υγρασία: 60%
Βαρόμετρο: 1016 hPa
2020/02/20 18:50 LGKZ 201850Z AUTO 35013G23KT 310V020 //// // ////// 03/M04 Q1016 RE//
LGIO - Ioannina-Elev 476m
Distance from station: ΔΝΔ 209km
Ενημερώθηκε: 20/02/2020 20:50
Μερικώς νεφελώδης
Μερικώς νεφελώδης
 Ανεμος από varies
Ανεμος: varies 9 km/h
Θερμοκρασία: 5°C
Wind Chill: 3°C
Σημείο Δρόσου: 0°C
Υγρασία: 70%
Βαρόμετρο: 1015 hPa
Clouds: Μερικώς νεφελώδης
Visibility: 10 km
Cloud details: Μερικώς νεφελώδης 1219 m
2020/02/20 18:50 LGIO 201850Z VRB05KT 9999 SCT040 05/00 Q1015
 
LGZA - Zakinthos-Elev 3m
Distance from station: ΝΝΔ 367km
Ενημερώθηκε: 20/02/2020 19:50
Μερικώς νεφελώδης
Μερικώς νεφελώδης
 Ανεμος από ΒΔ
Ανεμος: ΒΔ 31 km/h
Θερμοκρασία: 12°C
Σημείο Δρόσου: 7°C
Υγρασία: 72%
Βαρόμετρο: 1013 hPa
Clouds: Μερικώς νεφελώδης
Visibility: 10 km
Cloud details: Few Clouds 549 m
Μερικώς νεφελώδης 610 m
2020/02/20 17:50 LGZA 201750Z 32017KT 9999 FEW018TCU SCT020 12/07 Q1013
LGKR - Corfu Island-Elev 2m
Distance from station: ΔΝΔ 282km
Ενημερώθηκε: 20/02/2020 20:50
Μερικώς νεφελώδης
Μερικώς νεφελώδης
 Ανεμος από Β
Ανεμος: Β 26 km/h
Θερμοκρασία: 12°C
Σημείο Δρόσου: 4°C
Υγρασία: 58%
Βαρόμετρο: 1015 hPa
Clouds: Μερικώς νεφελώδης
Visibility: 10 km
Cloud details: Μερικώς νεφελώδης 610 m
2020/02/20 18:50 LGKR 201850Z 35014KT 9999 SCT020 12/04 Q1015 NOSIG
 
LGSO - Syros Island-Elev 72m
Distance from station: ΝΝΑ 397km
Ενημερώθηκε: 20/02/2020 20:50
Ασθενής βροχή
Ασθενής βροχή
 Ανεμος από ΒΒΔ
Ανεμος: ΒΒΔ 28 km/h
Θερμοκρασία: 10°C
Wind Chill: 7°C
Σημείο Δρόσου: 7°C
Υγρασία: 82%
Βαρόμετρο: 1010 hPa
Συνθήκες: Ασθενής βροχή
2020/02/20 18:50 LGSO 201850Z AUTO 34015KT //// -RA ////// 10/07 Q1010 RE//
LGMK - Mikonos Island-Elev 123m
Distance from station: ΝΝΑ 412km
Ενημερώθηκε: 20/02/2020 19:50
Σχεδόν νεφελώδης
Σχεδόν νεφελώδης
 Ανεμος από Β
Ανεμος: Β 19 km/h
Θερμοκρασία: 13°C
Σημείο Δρόσου: 4°C
Υγρασία: 55%
Βαρόμετρο: 1009 hPa
Clouds: Σχεδόν νεφελώδης
Visibility: 10 km
Cloud details: Few Clouds 549 m
Σχεδόν νεφελώδης 762 m
2020/02/20 17:50 LGMK 201750Z 01010KT 9999 FEW018TCU BKN025 13/04 Q1009
 
LGSR - Santorini Island-Elev 40m
Distance from station: ΝΝΑ 520km
Ενημερώθηκε: 20/02/2020 20:50
Μερικώς νεφελώδης
Μερικώς νεφελώδης
 Ανεμος από Δ
Ανεμος: Δ 41 km/h
Θερμοκρασία: 14°C
Σημείο Δρόσου: 9°C
Υγρασία: 72%
Βαρόμετρο: 1010 hPa
Clouds: Μερικώς νεφελώδης
Visibility: 10 km
Cloud details: Μερικώς νεφελώδης 762 m
2020/02/20 18:50 LGSR 201850Z 26022KT 9999 SCT025 14/09 Q1010
LGKL - Kalamata-Elev 8m
Distance from station: Ν 405km
Ενημερώθηκε: 20/02/2020 20:50
Σχεδόν νεφελώδης
Σχεδόν νεφελώδης
 Ανεμος από calm
Ανεμος: Απνοια
Θερμοκρασία: 8°C
Σημείο Δρόσου: 6°C
Υγρασία: 87%
Βαρόμετρο: 1013 hPa
Clouds: Σχεδόν νεφελώδης
Visibility: 10 km
Cloud details: Few Clouds 762 m
Μερικώς νεφελώδης 1067 m
Σχεδόν νεφελώδης 2438 m
2020/02/20 18:50 LGKL 201850Z 00000KT 9999 FEW025 SCT035 BKN080 08/06 Q1013
 
LGIR - Iraklion/Crete-Elev 5m
Distance from station: ΝΝΑ 622km
Ενημερώθηκε: 20/02/2020 20:50
Σχεδόν νεφελώδης
Σχεδόν νεφελώδης
 Ανεμος από ΔΝΔ
Ανεμος: ΔΝΔ 11 km/h
Θερμοκρασία: 14°C
Σημείο Δρόσου: 9°C
Υγρασία: 72%
Βαρόμετρο: 1012 hPa
Clouds: Σχεδόν νεφελώδης
Visibility: 10 km
Cloud details: Few Clouds 610 m
Σχεδόν νεφελώδης 914 m
2020/02/20 18:50 LGIR 201850Z 25006KT 9999 FEW020 BKN030 14/09 Q1012 NOSIG
LGRP - Rhodes-Elev 5m
Distance from station: ΝΑ 649km
Ενημερώθηκε: 20/02/2020 20:50
Σχεδόν νεφελώδης
Σχεδόν νεφελώδης
 Ανεμος από Ν
Ανεμος: Ν 11 km/h
Θερμοκρασία: 14°C
Σημείο Δρόσου: 9°C
Υγρασία: 72%
Βαρόμετρο: 1010 hPa
Clouds: Σχεδόν νεφελώδης
Visibility: 10 km
Cloud details: Few Clouds 305 m
Few Clouds 549 m
Σχεδόν νεφελώδης 762 m
2020/02/20 18:50 LGRP 201850Z 18006KT 140V220 9999 FEW010 FEW018TCU BKN025 14/09 Q1010 NOSIG
 
LWOH - Ohrid/FYROM-Elev 761m
Distance from station: ΔΒΔ 188km
Ενημερώθηκε: 20/02/2020 20:30
Μερικώς νεφελώδης
Μερικώς νεφελώδης
 Ανεμος από ΒΒΔ
Ανεμος: ΒΒΔ 17 km/h
Θερμοκρασία: 2°C
Wind Chill: -2°C
Σημείο Δρόσου: -5°C
Υγρασία: 60%
Βαρόμετρο: 1018 hPa
Clouds: Μερικώς νεφελώδης
Visibility: 10 km
Cloud details: Μερικώς νεφελώδης 1524 m
2020/02/20 18:30 LWOH 201830Z 34009KT 9999 SCT050 02/M05 Q1018
LBSF - Sofia/Bulgaria-Elev 595m
Distance from station: Β 227km
Ενημερώθηκε: 20/02/2020 20:30
Ασθενής βροχή, Συννεφιά
Ασθενής βροχή, Συννεφιά
 Ανεμος από Δ
Ανεμος: Δ 20 km/h
Θερμοκρασία: 2°C
Wind Chill: -3°C
Σημείο Δρόσου: 0°C
Υγρασία: 87%
Βαρόμετρο: 1020 hPa
Συνθήκες: Ασθενής βροχή
Clouds: Συννεφιά
Visibility: 10 km
Cloud details: Μερικώς νεφελώδης 549 m
Μερικώς νεφελώδης 823 m
Συννεφιά 1402 m
2020/02/20 18:30 LBSF 201830Z 28011KT 9999 -RA SCT018 SCT027 OVC046 02/00 Q1020 R99/29//95 TEMPO 5000 -RASN
Σημερινά ρεκόρ Μετεωρολογικού Σταθμού
Η Μέγιστη Θερμοκρασία των 26.6°C ξεπέρασε τη Μέγιστη Ετήσια τιμή των 17°C που σημειώθηκε στις 18/02/2020 κατά 9.6°
Η Μέγιστη τιμή Σημείου Δρόσου των 18.2°C ξεπέρασε τη Μέγιστη Ετήσια τιμή των 5.1°C που σημειώθηκε στις 04/01/2020 κατά 13.1°